Powell, Texas
Current Conditions -  °F | °C
As of 5:53 PM on Tuesday 25 Nov 2014 (Local Time) from KCRS Reporting Station
Haze Haze  
Wind Chill: 14°   Ceiling: Unl
Heat Index: 14°   Visibility: 5mi
Dew Point: -4°   Wind: 6mph
Humidity: 27%   Direction: 240°WSW
Pressure: 30.18"   Gusts: NA
Location:  32.12°N, 96.32°W
Report Text: KCRS 252353Z AUTO 24005KT 5SM HZ CLR 14/M04 A3018 RMK AO2 SLP221 T01441044 10189 20139 55004
Loading
Personal Weather Stations






























Interactive Weather Map New forecast layout! Learn more

10-Day Weather Forecast

Advertisements
Track Severe Weather on mobile